sensor_id;sensor_type;location;lat;lon;timestamp;temperature;humidity
34522;DHT22;25561;48.888;8.736;2023-03-14T06:49:40;10.60;99.90
34522;DHT22;25561;48.888;8.736;2023-03-14T06:52:42;11.20;99.90
34522;DHT22;25561;48.888;8.736;2023-03-14T06:55:50;11.60;99.90
34522;DHT22;25561;48.888;8.736;2023-03-14T06:58:52;12.10;99.90
34522;DHT22;25561;48.888;8.736;2023-03-14T07:01:54;12.80;99.90
34522;DHT22;25561;48.888;8.736;2023-03-14T07:04:56;13.10;99.90
34522;DHT22;25561;48.888;8.736;2023-03-14T07:08:00;12.60;99.90
34522;DHT22;25561;48.888;8.736;2023-03-14T07:11:03;12.70;99.90
34522;DHT22;25561;48.888;8.736;2023-03-14T07:14:07;12.80;99.90
34522;DHT22;25561;48.888;8.736;2023-03-14T07:17:10;12.70;99.90
34522;DHT22;25561;48.888;8.736;2023-03-14T07:20:15;12.50;99.90
34522;DHT22;25561;48.888;8.736;2023-03-14T07:23:23;12.30;99.90
34522;DHT22;25561;48.888;8.736;2023-03-14T07:26:30;12.50;99.90
34522;DHT22;25561;48.888;8.736;2023-03-14T07:29:36;12.90;99.90
34522;DHT22;25561;48.888;8.736;2023-03-14T07:32:41;12.80;99.90
34522;DHT22;25561;48.888;8.736;2023-03-14T07:35:47;13.30;99.90
34522;DHT22;25561;48.888;8.736;2023-03-14T07:38:53;13.30;99.90
34522;DHT22;25561;48.888;8.736;2023-03-14T07:41:56;12.80;99.90
34522;DHT22;25561;48.888;8.736;2023-03-14T07:45:01;13.70;99.90
34522;DHT22;25561;48.888;8.736;2023-03-14T07:48:06;13.40;99.90
34522;DHT22;25561;48.888;8.736;2023-03-14T07:51:08;12.80;99.90
34522;DHT22;25561;48.888;8.736;2023-03-14T07:54:10;12.60;99.90
34522;DHT22;25561;48.888;8.736;2023-03-14T07:57:12;12.20;99.90
34522;DHT22;25561;48.888;8.736;2023-03-14T08:00:15;12.20;99.90
34522;DHT22;25561;48.888;8.736;2023-03-14T08:03:17;12.30;99.90
34522;DHT22;25561;48.888;8.736;2023-03-14T08:06:21;11.90;99.90
34522;DHT22;25561;48.888;8.736;2023-03-14T08:09:24;12.20;99.90
34522;DHT22;25561;48.888;8.736;2023-03-14T08:12:26;12.00;99.90
34522;DHT22;25561;48.888;8.736;2023-03-14T08:15:29;11.90;99.90
34522;DHT22;25561;48.888;8.736;2023-03-14T08:18:32;11.80;99.90
34522;DHT22;25561;48.888;8.736;2023-03-14T08:21:35;11.80;99.90
34522;DHT22;25561;48.888;8.736;2023-03-14T08:24:37;11.70;99.90
34522;DHT22;25561;48.888;8.736;2023-03-14T08:27:39;11.60;99.90
34522;DHT22;25561;48.888;8.736;2023-03-14T08:30:42;11.80;99.90
34522;DHT22;25561;48.888;8.736;2023-03-14T08:33:48;11.70;99.90
34522;DHT22;25561;48.888;8.736;2023-03-14T08:36:50;11.70;99.90
34522;DHT22;25561;48.888;8.736;2023-03-14T08:39:53;11.90;99.90
34522;DHT22;25561;48.888;8.736;2023-03-14T08:42:56;11.90;99.90
34522;DHT22;25561;48.888;8.736;2023-03-14T08:46:04;11.90;99.90
34522;DHT22;25561;48.888;8.736;2023-03-14T08:49:06;12.00;99.90
34522;DHT22;25561;48.888;8.736;2023-03-14T08:52:09;11.90;99.90
34522;DHT22;25561;48.888;8.736;2023-03-14T08:55:13;11.70;99.90
34522;DHT22;25561;48.888;8.736;2023-03-14T08:58:16;11.60;99.90
34522;DHT22;25561;48.888;8.736;2023-03-14T09:01:21;11.80;99.90
34522;DHT22;25561;48.888;8.736;2023-03-14T09:04:27;11.90;99.90
34522;DHT22;25561;48.888;8.736;2023-03-14T09:07:32;12.20;99.90
34522;DHT22;25561;48.888;8.736;2023-03-14T09:10:44;12.40;99.90
34522;DHT22;25561;48.888;8.736;2023-03-14T09:13:47;12.40;99.90
34522;DHT22;25561;48.888;8.736;2023-03-14T09:16:52;12.20;99.90
34522;DHT22;25561;48.888;8.736;2023-03-14T09:19:56;12.30;99.90
34522;DHT22;25561;48.888;8.736;2023-03-14T09:23:17;12.00;99.90
34522;DHT22;25561;48.888;8.736;2023-03-14T09:26:25;12.00;99.90
34522;DHT22;25561;48.888;8.736;2023-03-14T09:29:40;11.90;99.90
34522;DHT22;25561;48.888;8.736;2023-03-14T09:32:47;11.70;99.90
34522;DHT22;25561;48.888;8.736;2023-03-14T09:35:58;11.80;99.90
34522;DHT22;25561;48.888;8.736;2023-03-14T09:39:14;11.90;99.90
34522;DHT22;25561;48.888;8.736;2023-03-14T09:42:26;12.00;99.90
34522;DHT22;25561;48.888;8.736;2023-03-14T09:45:34;12.30;99.90
34522;DHT22;25561;48.888;8.736;2023-03-14T09:48:39;12.50;99.90
34522;DHT22;25561;48.888;8.736;2023-03-14T09:51:42;12.40;99.90
34522;DHT22;25561;48.888;8.736;2023-03-14T09:54:56;12.60;99.90
34522;DHT22;25561;48.888;8.736;2023-03-14T09:58:14;13.00;99.90
34522;DHT22;25561;48.888;8.736;2023-03-14T10:01:30;13.20;99.90
34522;DHT22;25561;48.888;8.736;2023-03-14T10:04:33;13.00;99.90
34522;DHT22;25561;48.888;8.736;2023-03-14T10:07:36;13.20;99.90
34522;DHT22;25561;48.888;8.736;2023-03-14T10:10:39;13.00;99.90
34522;DHT22;25561;48.888;8.736;2023-03-14T10:14:04;12.80;99.90
34522;DHT22;25561;48.888;8.736;2023-03-14T10:17:10;12.50;99.90
34522;DHT22;25561;48.888;8.736;2023-03-14T10:20:35;12.10;99.90
34522;DHT22;25561;48.888;8.736;2023-03-14T10:23:38;12.10;99.90
34522;DHT22;25561;48.888;8.736;2023-03-14T10:26:57;12.10;99.90
34522;DHT22;25561;48.888;8.736;2023-03-14T10:30:05;12.10;99.90
34522;DHT22;25561;48.888;8.736;2023-03-14T10:33:10;12.20;99.90
34522;DHT22;25561;48.888;8.736;2023-03-14T10:36:23;12.10;99.90
34522;DHT22;25561;48.888;8.736;2023-03-14T10:39:37;12.10;99.90
34522;DHT22;25561;48.888;8.736;2023-03-14T10:42:44;11.80;99.90
34522;DHT22;25561;48.888;8.736;2023-03-14T10:46:15;11.50;99.90
34522;DHT22;25561;48.888;8.736;2023-03-14T10:49:31;11.40;99.90
34522;DHT22;25561;48.888;8.736;2023-03-14T10:52:34;11.60;99.90
34522;DHT22;25561;48.888;8.736;2023-03-14T10:55:57;11.60;99.90
34522;DHT22;25561;48.888;8.736;2023-03-14T10:59:12;11.30;99.90
34522;DHT22;25561;48.888;8.736;2023-03-14T11:02:34;11.10;99.90
34522;DHT22;25561;48.888;8.736;2023-03-14T11:05:57;11.20;99.90
34522;DHT22;25561;48.888;8.736;2023-03-14T11:19:03;10.90;99.90
34522;DHT22;25561;48.888;8.736;2023-03-14T11:22:32;10.90;99.90
34522;DHT22;25561;48.888;8.736;2023-03-14T11:32:46;10.90;99.90
34522;DHT22;25561;48.888;8.736;2023-03-14T11:38:59;10.60;99.90
34522;DHT22;25561;48.888;8.736;2023-03-14T11:42:02;10.60;99.90
34522;DHT22;25561;48.888;8.736;2023-03-14T11:45:20;10.50;99.90
34522;DHT22;25561;48.888;8.736;2023-03-14T11:51:46;10.20;99.90
34522;DHT22;25561;48.888;8.736;2023-03-14T11:55:12;10.10;99.90
34522;DHT22;25561;48.888;8.736;2023-03-14T11:58:25;9.90;99.90
34522;DHT22;25561;48.888;8.736;2023-03-14T12:01:40;9.70;99.90
34522;DHT22;25561;48.888;8.736;2023-03-14T12:05:34;9.40;99.90
34522;DHT22;25561;48.888;8.736;2023-03-14T12:15:00;8.60;99.90
34522;DHT22;25561;48.888;8.736;2023-03-14T12:18:03;8.30;99.90
34522;DHT22;25561;48.888;8.736;2023-03-14T12:21:11;7.90;99.90
34522;DHT22;25561;48.888;8.736;2023-03-14T12:24:23;7.80;99.90
34522;DHT22;25561;48.888;8.736;2023-03-14T12:34:33;8.70;99.90
34522;DHT22;25561;48.888;8.736;2023-03-14T12:37:43;8.90;99.90
34522;DHT22;25561;48.888;8.736;2023-03-14T12:50:41;10.30;99.90
34522;DHT22;25561;48.888;8.736;2023-03-14T12:57:59;9.90;99.90
34522;DHT22;25561;48.888;8.736;2023-03-14T13:01:17;10.00;99.90
34522;DHT22;25561;48.888;8.736;2023-03-14T13:04:50;9.60;99.90
34522;DHT22;25561;48.888;8.736;2023-03-14T13:11:01;9.50;99.90
34522;DHT22;25561;48.888;8.736;2023-03-14T13:14:09;9.70;99.90
34522;DHT22;25561;48.888;8.736;2023-03-14T13:17:24;9.60;99.90
34522;DHT22;25561;48.888;8.736;2023-03-14T13:20:50;9.70;99.90
34522;DHT22;25561;48.888;8.736;2023-03-14T13:24:20;9.60;99.90
34522;DHT22;25561;48.888;8.736;2023-03-14T13:27:22;10.20;99.90
34522;DHT22;25561;48.888;8.736;2023-03-14T13:30:46;10.50;99.90
34522;DHT22;25561;48.888;8.736;2023-03-14T13:34:06;10.80;99.90
34522;DHT22;25561;48.888;8.736;2023-03-14T13:37:19;10.10;99.90
34522;DHT22;25561;48.888;8.736;2023-03-14T13:40:28;10.00;99.90
34522;DHT22;25561;48.888;8.736;2023-03-14T13:43:40;10.10;99.90
34522;DHT22;25561;48.888;8.736;2023-03-14T13:46:43;10.30;99.90
34522;DHT22;25561;48.888;8.736;2023-03-14T13:49:45;10.50;99.90
34522;DHT22;25561;48.888;8.736;2023-03-14T13:52:55;10.40;99.90
34522;DHT22;25561;48.888;8.736;2023-03-14T13:56:01;10.00;99.90
34522;DHT22;25561;48.888;8.736;2023-03-14T13:59:04;9.80;99.90
34522;DHT22;25561;48.888;8.736;2023-03-14T14:02:13;9.80;99.90
34522;DHT22;25561;48.888;8.736;2023-03-14T14:05:19;9.40;99.90
34522;DHT22;25561;48.888;8.736;2023-03-14T14:08:21;9.50;99.90
34522;DHT22;25561;48.888;8.736;2023-03-14T14:11:47;9.40;99.90
34522;DHT22;25561;48.888;8.736;2023-03-14T14:15:15;9.50;99.90
34522;DHT22;25561;48.888;8.736;2023-03-14T14:18:23;9.70;99.90
34522;DHT22;25561;48.888;8.736;2023-03-14T14:21:27;9.80;99.90
34522;DHT22;25561;48.888;8.736;2023-03-14T14:24:31;9.90;99.90
34522;DHT22;25561;48.888;8.736;2023-03-14T14:27:37;9.90;99.90
34522;DHT22;25561;48.888;8.736;2023-03-14T14:30:40;10.20;99.90
34522;DHT22;25561;48.888;8.736;2023-03-14T14:33:44;10.10;99.90
34522;DHT22;25561;48.888;8.736;2023-03-14T14:36:46;10.20;99.90
34522;DHT22;25561;48.888;8.736;2023-03-14T14:39:53;10.20;99.90
34522;DHT22;25561;48.888;8.736;2023-03-14T14:43:03;10.20;99.90
34522;DHT22;25561;48.888;8.736;2023-03-14T14:46:06;9.90;99.90
34522;DHT22;25561;48.888;8.736;2023-03-14T14:49:16;9.80;99.90
34522;DHT22;25561;48.888;8.736;2023-03-14T14:52:39;9.70;99.90
34522;DHT22;25561;48.888;8.736;2023-03-14T14:55:42;9.80;99.90
34522;DHT22;25561;48.888;8.736;2023-03-14T14:58:46;9.90;99.90
34522;DHT22;25561;48.888;8.736;2023-03-14T15:01:48;9.80;99.90
34522;DHT22;25561;48.888;8.736;2023-03-14T15:04:51;9.90;99.90
34522;DHT22;25561;48.888;8.736;2023-03-14T15:07:53;9.90;99.90
34522;DHT22;25561;48.888;8.736;2023-03-14T15:10:56;9.80;99.90
34522;DHT22;25561;48.888;8.736;2023-03-14T15:13:59;9.70;99.90
34522;DHT22;25561;48.888;8.736;2023-03-14T15:17:02;9.50;99.90
34522;DHT22;25561;48.888;8.736;2023-03-14T15:20:10;9.60;99.90
34522;DHT22;25561;48.888;8.736;2023-03-14T15:23:17;9.40;99.90
34522;DHT22;25561;48.888;8.736;2023-03-14T15:26:21;9.20;99.90
34522;DHT22;25561;48.888;8.736;2023-03-14T15:29:23;9.10;99.90
34522;DHT22;25561;48.888;8.736;2023-03-14T15:32:26;9.20;99.90
34522;DHT22;25561;48.888;8.736;2023-03-14T15:35:33;9.20;99.90
34522;DHT22;25561;48.888;8.736;2023-03-14T15:38:34;9.10;99.90
34522;DHT22;25561;48.888;8.736;2023-03-14T15:41:36;9.10;99.90
34522;DHT22;25561;48.888;8.736;2023-03-14T15:44:39;9.30;99.90
34522;DHT22;25561;48.888;8.736;2023-03-14T15:47:40;9.30;99.90
34522;DHT22;25561;48.888;8.736;2023-03-14T15:50:42;9.50;99.90
34522;DHT22;25561;48.888;8.736;2023-03-14T15:53:44;9.60;99.90
34522;DHT22;25561;48.888;8.736;2023-03-14T15:56:48;9.50;99.90
34522;DHT22;25561;48.888;8.736;2023-03-14T15:59:50;9.10;99.90
34522;DHT22;25561;48.888;8.736;2023-03-14T16:02:52;9.10;99.90
34522;DHT22;25561;48.888;8.736;2023-03-14T16:05:54;8.90;99.90
34522;DHT22;25561;48.888;8.736;2023-03-14T16:08:56;8.90;99.90
34522;DHT22;25561;48.888;8.736;2023-03-14T16:11:58;8.80;99.90
34522;DHT22;25561;48.888;8.736;2023-03-14T16:15:00;8.90;99.90
34522;DHT22;25561;48.888;8.736;2023-03-14T16:18:02;8.90;99.90
34522;DHT22;25561;48.888;8.736;2023-03-14T16:21:21;8.90;99.90
34522;DHT22;25561;48.888;8.736;2023-03-14T16:24:23;8.80;99.90
34522;DHT22;25561;48.888;8.736;2023-03-14T16:27:25;8.80;99.90
34522;DHT22;25561;48.888;8.736;2023-03-14T16:30:26;8.80;99.90
34522;DHT22;25561;48.888;8.736;2023-03-14T16:33:28;8.80;99.90
34522;DHT22;25561;48.888;8.736;2023-03-14T16:36:31;8.40;99.90
34522;DHT22;25561;48.888;8.736;2023-03-14T16:39:32;7.40;99.90
34522;DHT22;25561;48.888;8.736;2023-03-14T16:42:41;7.10;99.90
34522;DHT22;25561;48.888;8.736;2023-03-14T16:46:05;6.80;99.90
34522;DHT22;25561;48.888;8.736;2023-03-14T16:49:07;6.80;99.90
34522;DHT22;25561;48.888;8.736;2023-03-14T16:52:09;6.80;99.90
34522;DHT22;25561;48.888;8.736;2023-03-14T16:55:10;6.80;99.90
34522;DHT22;25561;48.888;8.736;2023-03-14T16:58:12;7.00;99.90
